Time;durP1;ratioP1;P1;durP2;ratioP2;P2;SDS_P1;SDS_P2;PMS_P1;PMS_P2;Temp;Humidity;BMP_temperature;BMP_pressure;BME280_temperature;BME280_humidity;BME280_pressure;Samples;Min_cycle;Max_cycle;Signal;HPM_P1;HPM_P2
2022/04/05 00:00:45;;;;;;;10.80;1.23;;;;;;;;;;4185434;28;20325;-88
2022/04/05 00:02:47;;;;;;;8.43;1.20;;;;;;;;;;4208886;28;20044;-88
2022/04/05 00:04:48;;;;;;;10.02;2.22;;;;;;;;;;4205820;28;20040;-88
2022/04/05 00:06:49;;;;;;;16.73;1.70;;;;;;;;;;4214652;28;20044;-88
2022/04/05 00:08:50;;;;;;;8.52;1.10;;;;;;;;;;4206727;28;20768;-88
2022/04/05 00:10:52;;;;;;;12.52;1.60;;;;;;;;;;4203953;28;20044;-88
2022/04/05 00:12:53;;;;;;;12.18;1.73;;;;;;;;;;4189118;28;20509;-88
2022/04/05 00:14:54;;;;;;;9.07;1.30;;;;;;;;;;4208142;28;20487;-89
2022/04/05 00:16:56;;;;;;;14.60;1.17;;;;;;;;;;4200130;28;20040;-88
2022/04/05 00:18:57;;;;;;;15.75;1.52;;;;;;;;;;4204315;28;20113;-88
2022/04/05 00:20:58;;;;;;;11.02;1.58;;;;;;;;;;4200803;28;20071;-88
2022/04/05 00:22:59;;;;;;;14.43;2.38;;;;;;;;;;4204651;28;20128;-88
2022/04/05 00:25:01;;;;;;;12.43;1.02;;;;;;;;;;4199215;28;20048;-88
2022/04/05 00:27:03;;;;;;;12.13;1.85;;;;;;;;;;4200392;28;20131;-88
2022/04/05 00:29:04;;;;;;;9.43;1.40;;;;;;;;;;4201905;28;20045;-88
2022/04/05 00:31:06;;;;;;;11.70;1.60;;;;;;;;;;4189473;28;20487;-88
2022/04/05 00:33:07;;;;;;;15.65;1.63;;;;;;;;;;4196721;28;20076;-88
2022/04/05 00:35:08;;;;;;;10.55;1.73;;;;;;;;;;4192161;28;20088;-88
2022/04/05 00:37:09;;;;;;;20.73;2.35;;;;;;;;;;4207987;28;20037;-88
2022/04/05 00:39:11;;;;;;;14.10;1.30;;;;;;;;;;4191205;28;20126;-88
2022/04/05 00:41:13;;;;;;;10.57;1.20;;;;;;;;;;4191756;28;20080;-87
2022/04/05 00:43:14;;;;;;;14.95;1.77;;;;;;;;;;4212829;28;20044;-88
2022/04/05 00:45:16;;;;;;;16.70;2.67;;;;;;;;;;4184287;28;20041;-88
2022/04/05 00:47:21;;;;;;;12.50;2.67;;;;;;;;;;4203858;28;20040;-88
2022/04/05 00:49:31;;;;;;;13.35;1.88;;;;;;;;;;4206283;28;20533;-89
2022/04/05 00:51:32;;;;;;;14.27;1.30;;;;;;;;;;4207720;28;20040;-88
2022/04/05 00:53:35;;;;;;;14.15;2.20;;;;;;;;;;4209879;28;20051;-88
2022/04/05 00:55:36;;;;;;;13.15;1.85;;;;;;;;;;4203143;28;20048;-88
2022/04/05 00:57:37;;;;;;;10.63;1.27;;;;;;;;;;4200263;28;20039;-89
2022/04/05 00:59:42;;;;;;;9.98;2.40;;;;;;;;;;4189777;28;20059;-88
2022/04/05 01:01:45;;;;;;;21.90;2.95;;;;;;;;;;4188396;28;20192;-88
2022/04/05 01:03:48;;;;;;;11.32;1.63;;;;;;;;;;4201613;28;20043;-88
2022/04/05 01:05:50;;;;;;;13.60;1.00;;;;;;;;;;4193317;28;20048;-89
2022/04/05 01:07:52;;;;;;;13.85;1.60;;;;;;;;;;4207478;28;20047;-88
2022/04/05 01:09:54;;;;;;;8.18;2.65;;;;;;;;;;4208765;28;20525;-88
2022/04/05 01:11:56;;;;;;;12.60;1.50;;;;;;;;;;4209995;28;20461;-88
2022/04/05 01:13:57;;;;;;;13.13;1.88;;;;;;;;;;4202655;28;20401;-89
2022/04/05 01:15:59;;;;;;;13.57;1.15;;;;;;;;;;4203269;28;20056;-89
2022/04/05 01:18:01;;;;;;;12.95;2.05;;;;;;;;;;4203730;28;20052;-88
2022/04/05 01:20:03;;;;;;;15.70;2.22;;;;;;;;;;4210043;28;20044;-87
2022/04/05 01:22:04;;;;;;;8.98;1.10;;;;;;;;;;4208897;28;20056;-87
2022/04/05 01:24:07;;;;;;;5.13;1.00;;;;;;;;;;4187257;28;20070;-88
2022/04/05 01:26:09;;;;;;;7.18;1.23;;;;;;;;;;4189626;28;20075;-87
2022/04/05 01:28:10;;;;;;;10.23;1.55;;;;;;;;;;4203386;28;20044;-87
2022/04/05 01:30:11;;;;;;;10.57;2.75;;;;;;;;;;4209319;28;20044;-88
2022/04/05 01:32:12;;;;;;;17.33;1.40;;;;;;;;;;4192240;28;20194;-87
2022/04/05 01:34:14;;;;;;;9.95;1.40;;;;;;;;;;4205299;28;20401;-87
2022/04/05 01:36:25;;;;;;;17.90;2.58;;;;;;;;;;4204985;28;20051;-87
2022/04/05 01:38:26;;;;;;;9.10;1.75;;;;;;;;;;4206440;28;20097;-87
2022/04/05 01:40:27;;;;;;;11.77;1.10;;;;;;;;;;4204669;28;20486;-87
2022/04/05 01:42:29;;;;;;;13.82;1.42;;;;;;;;;;4201168;28;20056;-87
2022/04/05 01:44:32;;;;;;;9.38;1.00;;;;;;;;;;4191512;28;20048;-87
2022/04/05 01:46:33;;;;;;;16.92;1.40;;;;;;;;;;4201925;28;20468;-87
2022/04/05 01:48:35;;;;;;;11.30;2.20;;;;;;;;;;4192978;28;20106;-88
2022/04/05 01:50:36;;;;;;;11.27;1.05;;;;;;;;;;4213353;28;20040;-88
2022/04/05 01:52:38;;;;;;;13.95;1.63;;;;;;;;;;4182721;28;20049;-88
2022/04/05 01:54:40;;;;;;;9.05;1.00;;;;;;;;;;4203654;28;20500;-88
2022/04/05 01:56:48;;;;;;;15.50;1.42;;;;;;;;;;4202513;28;20044;-88
2022/04/05 01:58:49;;;;;;;14.75;1.42;;;;;;;;;;4213244;28;20040;-87
2022/04/05 02:00:51;;;;;;;7.50;1.13;;;;;;;;;;4209951;28;20040;-87
2022/04/05 02:02:52;;;;;;;9.75;1.20;;;;;;;;;;4206390;28;20039;-88
2022/04/05 02:04:54;;;;;;;14.18;1.38;;;;;;;;;;4201136;28;20114;-88
2022/04/05 02:06:56;;;;;;;12.27;0.98;;;;;;;;;;4208843;28;20171;-88
2022/04/05 02:08:57;;;;;;;10.75;1.13;;;;;;;;;;4209576;28;20047;-88
2022/04/05 02:10:58;;;;;;;12.75;1.30;;;;;;;;;;4209333;28;20040;-88
2022/04/05 02:12:59;;;;;;;11.27;1.13;;;;;;;;;;4202327;28;20151;-88
2022/04/05 02:15:00;;;;;;;7.05;0.93;;;;;;;;;;4185500;28;20079;-88
2022/04/05 02:17:02;;;;;;;7.60;0.93;;;;;;;;;;4210182;28;20080;-88
2022/04/05 02:19:03;;;;;;;13.40;1.38;;;;;;;;;;4213738;28;20119;-88
2022/04/05 02:21:05;;;;;;;10.05;1.45;;;;;;;;;;4206800;28;20486;-88
2022/04/05 02:23:06;;;;;;;8.60;1.58;;;;;;;;;;4203198;28;20049;-87
2022/04/05 02:25:08;;;;;;;10.27;2.25;;;;;;;;;;4203077;28;20131;-88
2022/04/05 02:27:09;;;;;;;9.77;1.50;;;;;;;;;;4191661;28;20095;-88
2022/04/05 02:29:10;;;;;;;16.05;1.88;;;;;;;;;;4210007;28;20051;-88
2022/04/05 02:31:11;;;;;;;13.15;1.20;;;;;;;;;;4208094;28;20137;-88
2022/04/05 02:33:12;;;;;;;14.20;2.25;;;;;;;;;;4188188;28;20051;-88
2022/04/05 02:35:13;;;;;;;13.45;1.73;;;;;;;;;;4203225;28;20041;-88
2022/04/05 02:37:14;;;;;;;16.35;1.83;;;;;;;;;;4212272;28;20070;-88
2022/04/05 02:39:17;;;;;;;13.73;2.17;;;;;;;;;;4212182;28;20059;-87
2022/04/05 02:41:18;;;;;;;17.77;2.22;;;;;;;;;;4210053;28;20068;-87
2022/04/05 02:43:19;;;;;;;9.00;1.65;;;;;;;;;;4190698;28;20057;-88
2022/04/05 02:45:20;;;;;;;15.68;1.60;;;;;;;;;;4197545;28;20064;-87
2022/04/05 02:47:22;;;;;;;16.00;2.15;;;;;;;;;;4211253;28;20044;-87
2022/04/05 02:49:23;;;;;;;15.90;1.15;;;;;;;;;;4207155;28;20072;-88
2022/04/05 02:51:24;;;;;;;15.55;1.85;;;;;;;;;;4195212;28;20056;-88
2022/04/05 02:53:25;;;;;;;15.48;1.83;;;;;;;;;;4204921;28;20116;-88
2022/04/05 02:55:27;;;;;;;16.90;2.22;;;;;;;;;;4208285;28;20036;-88
2022/04/05 02:57:28;;;;;;;20.15;1.75;;;;;;;;;;4212288;28;20126;-88
2022/04/05 02:59:30;;;;;;;10.63;2.13;;;;;;;;;;4192519;28;20083;-87
2022/04/05 03:01:31;;;;;;;15.80;1.95;;;;;;;;;;4205299;28;20053;-88
2022/04/05 03:03:33;;;;;;;13.77;1.60;;;;;;;;;;4206787;28;20048;-88
2022/04/05 03:05:34;;;;;;;9.52;1.45;;;;;;;;;;4214374;28;20105;-87
2022/04/05 03:07:35;;;;;;;13.65;1.40;;;;;;;;;;4206646;28;20043;-87
2022/04/05 03:09:36;;;;;;;15.27;1.38;;;;;;;;;;4208677;28;20493;-87
2022/04/05 03:11:38;;;;;;;13.05;1.60;;;;;;;;;;4187883;28;20540;-87
2022/04/05 03:13:39;;;;;;;11.82;1.85;;;;;;;;;;4207337;28;20417;-87
2022/04/05 03:15:40;;;;;;;12.68;2.72;;;;;;;;;;4213497;28;20195;-87
2022/04/05 03:17:42;;;;;;;15.45;1.45;;;;;;;;;;4210560;28;20051;-87
2022/04/05 03:19:43;;;;;;;12.88;3.30;;;;;;;;;;4188302;28;20583;-87
2022/04/05 03:21:46;;;;;;;15.73;2.03;;;;;;;;;;4212085;28;20050;-87
2022/04/05 03:23:47;;;;;;;15.35;1.67;;;;;;;;;;4204661;28;20509;-87
2022/04/05 03:25:49;;;;;;;8.10;1.98;;;;;;;;;;4210458;28;20044;-87
2022/04/05 03:27:50;;;;;;;14.50;1.38;;;;;;;;;;4203770;28;20033;-87
2022/04/05 03:29:54;;;;;;;13.43;1.33;;;;;;;;;;4202223;28;20051;-87
2022/04/05 03:31:55;;;;;;;22.48;1.25;;;;;;;;;;4205928;28;20541;-86
2022/04/05 03:33:56;;;;;;;12.15;1.38;;;;;;;;;;4208182;28;20401;-87
2022/04/05 03:35:58;;;;;;;15.93;2.55;;;;;;;;;;4213999;28;20044;-87
2022/04/05 03:37:59;;;;;;;11.35;1.50;;;;;;;;;;4191166;28;20049;-87
2022/04/05 03:40:01;;;;;;;15.80;1.70;;;;;;;;;;4209005;28;20047;-87
2022/04/05 03:42:04;;;;;;;17.88;1.63;;;;;;;;;;4207682;28;20581;-87
2022/04/05 03:44:05;;;;;;;14.98;2.70;;;;;;;;;;4192775;28;20525;-87
2022/04/05 03:46:07;;;;;;;18.27;1.60;;;;;;;;;;4195674;28;20132;-87
2022/04/05 03:48:09;;;;;;;10.50;1.20;;;;;;;;;;4191022;28;20055;-88
2022/04/05 03:50:10;;;;;;;12.68;1.23;;;;;;;;;;4188212;28;20530;-88
2022/04/05 03:52:11;;;;;;;10.27;1.30;;;;;;;;;;4207682;28;20506;-88
2022/04/05 03:54:12;;;;;;;6.10;0.93;;;;;;;;;;4194143;28;20049;-87
2022/04/05 03:56:13;;;;;;;8.38;1.10;;;;;;;;;;4205548;28;20120;-87
2022/04/05 03:58:15;;;;;;;14.10;1.75;;;;;;;;;;4204350;28;20040;-88
2022/04/05 04:00:16;;;;;;;12.55;2.30;;;;;;;;;;4193036;28;20040;-87
2022/04/05 04:02:18;;;;;;;9.40;1.27;;;;;;;;;;4216654;28;20178;-88
2022/04/05 04:04:19;;;;;;;9.30;1.92;;;;;;;;;;4213258;28;20048;-87
2022/04/05 04:06:21;;;;;;;10.27;1.58;;;;;;;;;;4204234;28;20123;-88
2022/04/05 04:08:22;;;;;;;8.80;1.23;;;;;;;;;;4204792;28;20052;-87
2022/04/05 04:10:23;;;;;;;9.68;1.35;;;;;;;;;;4205951;28;20052;-87
2022/04/05 04:12:24;;;;;;;14.27;1.35;;;;;;;;;;4210528;28;20044;-88
2022/04/05 04:14:25;;;;;;;11.68;1.10;;;;;;;;;;4210450;28;20119;-88
2022/04/05 04:16:26;;;;;;;13.43;1.70;;;;;;;;;;4211260;28;20048;-87
2022/04/05 04:18:28;;;;;;;9.07;1.08;;;;;;;;;;4206382;28;20040;-87
2022/04/05 04:20:29;;;;;;;8.63;1.35;;;;;;;;;;4192236;28;20087;-88
2022/04/05 04:22:30;;;;;;;8.20;1.63;;;;;;;;;;4209670;28;20069;-88
2022/04/05 04:24:32;;;;;;;11.77;0.98;;;;;;;;;;4208652;28;20090;-87
2022/04/05 04:26:33;;;;;;;7.55;1.05;;;;;;;;;;4202923;28;20049;-87
2022/04/05 04:28:35;;;;;;;10.23;1.58;;;;;;;;;;4193038;28;20097;-88
2022/04/05 04:30:38;;;;;;;9.73;1.88;;;;;;;;;;4213582;28;20044;-88
2022/04/05 04:32:39;;;;;;;16.27;1.65;;;;;;;;;;4211886;28;20047;-87
2022/04/05 04:34:41;;;;;;;13.85;2.20;;;;;;;;;;4203495;28;20044;-87
2022/04/05 04:36:42;;;;;;;11.75;2.00;;;;;;;;;;4205077;28;20051;-88
2022/04/05 04:38:43;;;;;;;17.35;2.28;;;;;;;;;;4205872;28;20123;-88
2022/04/05 04:40:45;;;;;;;11.02;1.33;;;;;;;;;;4211347;28;20493;-88
2022/04/05 04:42:47;;;;;;;8.48;1.70;;;;;;;;;;4195847;28;20040;-88
2022/04/05 04:44:48;;;;;;;11.45;2.33;;;;;;;;;;4209268;28;20044;-88
2022/04/05 04:46:49;;;;;;;9.50;1.23;;;;;;;;;;4205294;28;20505;-88
2022/04/05 04:48:50;;;;;;;8.93;1.20;;;;;;;;;;4205500;28;20158;-88
2022/04/05 04:50:51;;;;;;;9.95;1.85;;;;;;;;;;4207331;28;20043;-89
2022/04/05 04:52:55;;;;;;;14.52;1.90;;;;;;;;;;4203683;28;20136;-88
2022/04/05 04:54:56;;;;;;;7.95;1.25;;;;;;;;;;4212052;28;20040;-87
2022/04/05 04:56:57;;;;;;;9.27;1.50;;;;;;;;;;4202026;28;20509;-87
2022/04/05 04:59:00;;;;;;;10.68;1.70;;;;;;;;;;4187924;28;20052;-88
2022/04/05 05:01:01;;;;;;;10.27;1.27;;;;;;;;;;4205504;28;20167;-88
2022/04/05 05:03:02;;;;;;;6.32;0.88;;;;;;;;;;4204204;28;20081;-88
2022/04/05 05:05:03;;;;;;;10.18;1.50;;;;;;;;;;4201232;28;20090;-88
2022/04/05 05:07:04;;;;;;;10.95;1.60;;;;;;;;;;4208971;28;20127;-87
2022/04/05 05:09:06;;;;;;;12.77;1.50;;;;;;;;;;4204578;28;20051;-87
2022/04/05 05:11:07;;;;;;;11.77;2.00;;;;;;;;;;4186850;28;20052;-86
2022/04/05 05:13:10;;;;;;;12.55;1.58;;;;;;;;;;4208384;28;20398;-87
2022/04/05 05:15:18;;;;;;;9.45;1.00;;;;;;;;;;4192644;28;20139;-87
2022/04/05 05:17:19;;;;;;;12.00;2.10;;;;;;;;;;4185572;28;20049;-87
2022/04/05 05:19:23;;;;;;;12.40;1.48;;;;;;;;;;4207444;28;20063;-86
2022/04/05 05:21:24;;;;;;;10.68;1.75;;;;;;;;;;4205735;28;20054;-86
2022/04/05 05:23:25;;;;;;;11.82;1.17;;;;;;;;;;4202160;28;20049;-87
2022/04/05 05:25:27;;;;;;;15.35;1.73;;;;;;;;;;4210953;28;20036;-88
2022/04/05 05:27:31;;;;;;;13.98;2.33;;;;;;;;;;4212002;28;20036;-86
2022/04/05 05:29:32;;;;;;;14.45;2.50;;;;;;;;;;4187484;28;20131;-85
2022/04/05 05:31:33;;;;;;;14.55;1.58;;;;;;;;;;4203103;28;20041;-87
2022/04/05 05:33:35;;;;;;;20.52;2.83;;;;;;;;;;4210919;28;20083;-87
2022/04/05 05:35:37;;;;;;;18.05;1.90;;;;;;;;;;4208236;28;20078;-87
2022/04/05 05:37:39;;;;;;;10.88;1.63;;;;;;;;;;4207790;28;20052;-86
2022/04/05 05:39:40;;;;;;;14.68;1.85;;;;;;;;;;4209037;28;20040;-86
2022/04/05 05:41:45;;;;;;;13.25;1.73;;;;;;;;;;4210662;28;20521;-87
2022/04/05 05:43:46;;;;;;;17.05;2.00;;;;;;;;;;4204566;28;20482;-86
2022/04/05 05:45:47;;;;;;;10.60;2.20;;;;;;;;;;4205840;28;20087;-85
2022/04/05 05:47:48;;;;;;;17.58;2.08;;;;;;;;;;4203660;28;20044;-86
2022/04/05 05:49:49;;;;;;;14.90;2.92;;;;;;;;;;4208943;28;20528;-86
2022/04/05 05:51:50;;;;;;;11.18;1.75;;;;;;;;;;4210574;28;20063;-87
2022/04/05 05:53:51;;;;;;;18.35;1.95;;;;;;;;;;4202011;28;20114;-86
2022/04/05 05:55:52;;;;;;;13.05;1.50;;;;;;;;;;4205382;28;20079;-86
2022/04/05 05:57:53;;;;;;;14.65;2.20;;;;;;;;;;4207762;28;20111;-89
2022/04/05 05:59:54;;;;;;;12.90;2.72;;;;;;;;;;4206016;28;20489;-89
2022/04/05 06:01:56;;;;;;;9.93;1.52;;;;;;;;;;4185151;28;20053;-89
2022/04/05 06:03:57;;;;;;;24.77;1.85;;;;;;;;;;4192440;28;20118;-89
2022/04/05 06:05:58;;;;;;;15.50;1.98;;;;;;;;;;4196046;28;20045;-89
2022/04/05 06:07:59;;;;;;;15.63;1.80;;;;;;;;;;4217183;28;20209;-89
2022/04/05 06:10:06;;;;;;;11.00;1.75;;;;;;;;;;4202333;28;20040;-89
2022/04/05 06:12:07;;;;;;;8.60;1.33;;;;;;;;;;4184048;28;20388;-89
2022/04/05 06:14:09;;;;;;;11.10;1.70;;;;;;;;;;4204654;28;20495;-88
2022/04/05 06:16:10;;;;;;;16.83;1.80;;;;;;;;;;4186228;28;20063;-89
2022/04/05 06:18:11;;;;;;;14.07;1.55;;;;;;;;;;4206501;28;20556;-88
2022/04/05 06:20:14;;;;;;;7.63;1.63;;;;;;;;;;4209342;28;20044;-87
2022/04/05 06:22:15;;;;;;;17.60;2.13;;;;;;;;;;4202698;28;20052;-87
2022/04/05 06:24:18;;;;;;;24.73;4.05;;;;;;;;;;4203198;28;20083;-87
2022/04/05 06:26:20;;;;;;;13.45;1.60;;;;;;;;;;4201823;28;20527;-87
2022/04/05 06:28:22;;;;;;;8.85;1.25;;;;;;;;;;4200263;28;20040;-87
2022/04/05 06:30:26;;;;;;;8.73;2.13;;;;;;;;;;4209976;28;20047;-87
2022/04/05 06:32:27;;;;;;;10.23;1.45;;;;;;;;;;4206047;28;20524;-88
2022/04/05 06:34:28;;;;;;;9.32;1.77;;;;;;;;;;4211853;28;20531;-88
2022/04/05 06:36:29;;;;;;;14.55;2.08;;;;;;;;;;4185185;28;20132;-89
2022/04/05 06:38:32;;;;;;;12.10;1.30;;;;;;;;;;4209159;28;20043;-87
2022/04/05 06:40:34;;;;;;;9.30;1.73;;;;;;;;;;4210620;28;20042;-88
2022/04/05 06:42:41;;;;;;;10.05;2.28;;;;;;;;;;4209554;28;20077;-88
2022/04/05 06:44:42;;;;;;;10.15;1.25;;;;;;;;;;4201580;28;20067;-89
2022/04/05 06:46:44;;;;;;;11.07;1.60;;;;;;;;;;4207978;28;20051;-89
2022/04/05 06:48:45;;;;;;;10.73;1.95;;;;;;;;;;4186027;28;20059;-89
2022/04/05 06:50:47;;;;;;;7.68;1.40;;;;;;;;;;4205834;28;20098;-89
2022/04/05 06:52:48;;;;;;;12.68;1.50;;;;;;;;;;4184940;28;20041;-89
2022/04/05 06:54:49;;;;;;;17.15;2.00;;;;;;;;;;4204420;28;20052;-88
2022/04/05 06:56:50;;;;;;;9.48;1.02;;;;;;;;;;4190497;28;20052;-87
2022/04/05 06:58:53;;;;;;;9.10;1.30;;;;;;;;;;4206833;28;20502;-87
2022/04/05 07:00:54;;;;;;;9.45;1.75;;;;;;;;;;4205771;28;20052;-87
2022/04/05 07:02:56;;;;;;;10.52;1.52;;;;;;;;;;4203902;28;20127;-86
2022/04/05 07:04:57;;;;;;;9.20;1.55;;;;;;;;;;4208128;28;20445;-86
2022/04/05 07:06:58;;;;;;;13.23;2.75;;;;;;;;;;4183544;28;20052;-85
2022/04/05 07:08:59;;;;;;;10.18;1.80;;;;;;;;;;4207260;28;20043;-86
2022/04/05 07:11:00;;;;;;;8.98;1.35;;;;;;;;;;4207587;28;20489;-87
2022/04/05 07:13:01;;;;;;;13.88;1.20;;;;;;;;;;4205723;28;20044;-86
2022/04/05 07:15:02;;;;;;;11.38;1.40;;;;;;;;;;4209042;28;20055;-86
2022/04/05 07:17:04;;;;;;;7.68;1.48;;;;;;;;;;4184745;28;20048;-87
2022/04/05 07:19:05;;;;;;;14.40;2.70;;;;;;;;;;4205528;28;20040;-87
2022/04/05 07:21:06;;;;;;;7.97;1.83;;;;;;;;;;4207272;28;20478;-87
2022/04/05 07:23:07;;;;;;;9.57;1.30;;;;;;;;;;4202020;28;20048;-87
2022/04/05 07:25:09;;;;;;;9.00;1.60;;;;;;;;;;4203978;28;20055;-87
2022/04/05 07:27:10;;;;;;;6.35;1.20;;;;;;;;;;4193852;28;20094;-87
2022/04/05 07:29:12;;;;;;;11.13;1.10;;;;;;;;;;4203089;28;20371;-87
2022/04/05 07:31:13;;;;;;;13.95;1.92;;;;;;;;;;4205352;28;20040;-86
2022/04/05 07:33:14;;;;;;;8.40;1.00;;;;;;;;;;4212261;28;20420;-87
2022/04/05 07:35:15;;;;;;;9.30;1.75;;;;;;;;;;4202728;28;20115;-87
2022/04/05 07:37:16;;;;;;;11.30;2.05;;;;;;;;;;4208370;28;20506;-87
2022/04/05 07:39:19;;;;;;;12.63;1.27;;;;;;;;;;4210775;28;20083;-87
2022/04/05 07:41:20;;;;;;;12.75;2.00;;;;;;;;;;4210764;28;20051;-87
2022/04/05 07:43:23;;;;;;;6.90;1.05;;;;;;;;;;4193147;28;20097;-87
2022/04/05 07:45:24;;;;;;;7.70;1.35;;;;;;;;;;4211570;28;20041;-88
2022/04/05 07:47:25;;;;;;;10.57;1.27;;;;;;;;;;4206198;28;20044;-87
2022/04/05 07:49:26;;;;;;;9.15;1.70;;;;;;;;;;4209329;28;20152;-87
2022/04/05 07:51:27;;;;;;;10.25;1.55;;;;;;;;;;4187522;28;20045;-87
2022/04/05 07:53:29;;;;;;;8.65;1.50;;;;;;;;;;4203324;28;20555;-88
2022/04/05 07:55:30;;;;;;;9.77;1.20;;;;;;;;;;4186492;28;20053;-87
2022/04/05 07:57:31;;;;;;;7.80;1.00;;;;;;;;;;4208904;28;20092;-88
2022/04/05 07:59:32;;;;;;;5.75;1.00;;;;;;;;;;4205298;28;20070;-88
2022/04/05 08:01:33;;;;;;;14.75;2.65;;;;;;;;;;4211054;28;20424;-88
2022/04/05 08:03:34;;;;;;;11.48;1.58;;;;;;;;;;4185814;28;20102;-87
2022/04/05 08:05:36;;;;;;;8.43;1.63;;;;;;;;;;4211521;28;20041;-87
2022/04/05 08:07:37;;;;;;;10.85;3.15;;;;;;;;;;4207460;28;20063;-88
2022/04/05 08:09:38;;;;;;;10.55;1.58;;;;;;;;;;4204220;28;20090;-87
2022/04/05 08:11:39;;;;;;;10.13;1.30;;;;;;;;;;4208856;28;20075;-87
2022/04/05 08:13:40;;;;;;;9.32;1.33;;;;;;;;;;4184063;28;20634;-86
2022/04/05 08:15:43;;;;;;;9.90;1.65;;;;;;;;;;4203694;28;20193;-87
2022/04/05 08:17:44;;;;;;;10.57;1.70;;;;;;;;;;4212525;28;20517;-87
2022/04/05 08:19:45;;;;;;;9.13;1.50;;;;;;;;;;4204227;28;20083;-87
2022/04/05 08:21:46;;;;;;;4.95;1.10;;;;;;;;;;4204843;28;20048;-87
2022/04/05 08:23:50;;;;;;;4.95;0.80;;;;;;;;;;4202694;28;20081;-86
2022/04/05 08:25:51;;;;;;;10.23;2.05;;;;;;;;;;4206216;28;20066;-85
2022/04/05 08:27:52;;;;;;;9.27;1.17;;;;;;;;;;4203301;28;20127;-86
2022/04/05 08:29:53;;;;;;;13.73;2.03;;;;;;;;;;4200382;28;20123;-86
2022/04/05 08:31:54;;;;;;;7.72;0.80;;;;;;;;;;4203577;28;20048;-86
2022/04/05 08:33:56;;;;;;;19.50;1.73;;;;;;;;;;4204754;28;20041;-86
2022/04/05 08:35:57;;;;;;;9.88;1.52;;;;;;;;;;4204498;28;20051;-87
2022/04/05 08:37:58;;;;;;;4.25;1.58;;;;;;;;;;4210638;28;20079;-87
2022/04/05 08:40:00;;;;;;;8.18;1.30;;;;;;;;;;4189688;28;20119;-87
2022/04/05 08:42:02;;;;;;;8.75;1.10;;;;;;;;;;4205721;28;20132;-87
2022/04/05 08:44:04;;;;;;;6.30;2.08;;;;;;;;;;4204531;28;20087;-85
2022/04/05 08:46:06;;;;;;;6.90;1.50;;;;;;;;;;4212379;28;20036;-85
2022/04/05 08:48:10;;;;;;;9.45;1.48;;;;;;;;;;4204311;28;20082;-86
2022/04/05 08:50:13;;;;;;;7.60;1.20;;;;;;;;;;4203449;28;20051;-87
2022/04/05 08:52:14;;;;;;;6.35;1.80;;;;;;;;;;4191551;28;20084;-86
2022/04/05 08:54:17;;;;;;;7.05;1.60;;;;;;;;;;4205054;28;20543;-87
2022/04/05 08:56:18;;;;;;;7.63;1.30;;;;;;;;;;4204824;28;20047;-86
2022/04/05 08:58:19;;;;;;;11.40;2.55;;;;;;;;;;4207103;28;20044;-86
2022/04/05 09:00:22;;;;;;;8.73;1.48;;;;;;;;;;4200787;28;20052;-87
2022/04/05 09:02:25;;;;;;;8.30;1.15;;;;;;;;;;4212495;28;20040;-86
2022/04/05 09:04:32;;;;;;;7.25;1.17;;;;;;;;;;4204237;28;20607;-86
2022/04/05 09:06:34;;;;;;;5.53;1.20;;;;;;;;;;4210380;28;20079;-87
2022/04/05 09:08:35;;;;;;;9.85;2.15;;;;;;;;;;4207245;28;22744;-88
2022/04/05 09:10:36;;;;;;;8.48;1.70;;;;;;;;;;4205396;28;20051;-88
2022/04/05 09:12:44;;;;;;;5.60;1.23;;;;;;;;;;4207753;28;20123;-87
2022/04/05 09:14:45;;;;;;;7.30;1.67;;;;;;;;;;4212534;28;20044;-87
2022/04/05 09:16:46;;;;;;;10.40;1.67;;;;;;;;;;4199419;28;20302;-87
2022/04/05 09:18:48;;;;;;;5.40;1.20;;;;;;;;;;4209172;28;20037;-87
2022/04/05 09:20:49;;;;;;;4.97;1.65;;;;;;;;;;4207666;28;20051;-87
2022/04/05 09:22:52;;;;;;;6.88;1.80;;;;;;;;;;4207058;28;20044;-87
2022/04/05 09:24:53;;;;;;;7.85;2.00;;;;;;;;;;4200416;28;20606;-87
2022/04/05 09:26:54;;;;;;;10.38;1.60;;;;;;;;;;4207686;28;20559;-88
2022/04/05 09:28:58;;;;;;;11.05;2.40;;;;;;;;;;4207795;28;20043;-87
2022/04/05 09:31:00;;;;;;;10.38;1.42;;;;;;;;;;4206589;28;20055;-87
2022/04/05 09:33:03;;;;;;;9.70;2.53;;;;;;;;;;4204720;28;20044;-89
2022/04/05 09:35:06;;;;;;;5.25;1.48;;;;;;;;;;4211448;28;20467;-88
2022/04/05 09:37:09;;;;;;;12.70;1.65;;;;;;;;;;4202848;28;20052;-88
2022/04/05 09:39:21;;;;;;;10.02;1.60;;;;;;;;;;4182505;28;20410;-88
2022/04/05 09:41:23;;;;;;;7.47;2.10;;;;;;;;;;4189754;28;20049;-88
2022/04/05 09:43:24;;;;;;;10.18;1.73;;;;;;;;;;4210652;28;20830;-88
2022/04/05 09:45:43;;;;;;;7.07;1.48;;;;;;;;;;4208054;28;20128;-89
2022/04/05 09:48:05;;;;;;;10.80;1.42;;;;;;;;;;4205080;28;20056;-88
2022/04/05 09:50:06;;;;;;;10.10;2.45;;;;;;;;;;4205816;28;20093;-87
2022/04/05 09:52:24;;;;;;;3.88;1.55;;;;;;;;;;4210697;28;20040;-88
2022/04/05 09:54:29;;;;;;;7.07;1.90;;;;;;;;;;4208007;28;20052;-88
2022/04/05 09:56:34;;;;;;;5.05;1.65;;;;;;;;;;4188851;28;20055;-87
2022/04/05 09:58:35;;;;;;;8.82;1.70;;;;;;;;;;4208776;28;20051;-88
2022/04/05 10:00:37;;;;;;;6.57;1.60;;;;;;;;;;4202164;28;20139;-87
2022/04/05 10:02:58;;;;;;;6.45;1.58;;;;;;;;;;4202058;28;20080;-87
2022/04/05 10:05:01;;;;;;;6.43;1.63;;;;;;;;;;4190543;28;20105;-87
2022/04/05 10:07:03;;;;;;;7.88;1.88;;;;;;;;;;4187537;28;20106;-89
2022/04/05 10:09:06;;;;;;;5.90;1.20;;;;;;;;;;4186688;28;20056;-88
2022/04/05 10:11:07;;;;;;;3.50;1.67;;;;;;;;;;4210241;28;20051;-88
2022/04/05 10:13:12;;;;;;;2.42;1.02;;;;;;;;;;4182621;28;20087;-88
2022/04/05 10:15:14;;;;;;;3.17;1.65;;;;;;;;;;4207714;28;20508;-87
2022/04/05 10:17:17;;;;;;;11.60;1.65;;;;;;;;;;4204221;28;20480;-88
2022/04/05 10:19:22;;;;;;;8.32;1.70;;;;;;;;;;4208515;28;20044;-87
2022/04/05 10:21:27;;;;;;;5.13;1.38;;;;;;;;;;4208693;28;20052;-88
2022/04/05 10:23:29;;;;;;;5.43;1.40;;;;;;;;;;4200032;28;20047;-87
2022/04/05 10:25:30;;;;;;;5.38;2.05;;;;;;;;;;4206905;28;20044;-88
2022/04/05 10:27:32;;;;;;;2.35;0.90;;;;;;;;;;4186435;28;20486;-87
2022/04/05 10:29:33;;;;;;;6.85;1.30;;;;;;;;;;4203372;28;20109;-87
2022/04/05 10:31:53;;;;;;;5.18;1.17;;;;;;;;;;4209333;28;20044;-87
2022/04/05 10:34:05;;;;;;;4.35;1.55;;;;;;;;;;4199195;28;20040;-87
2022/04/05 10:36:08;;;;;;;6.88;0.98;;;;;;;;;;4185829;28;20071;-87
2022/04/05 10:38:10;;;;;;;2.72;0.80;;;;;;;;;;4192026;28;20045;-87
2022/04/05 10:40:13;;;;;;;11.00;2.72;;;;;;;;;;4209524;28;20045;-86
2022/04/05 10:42:21;;;;;;;2.83;0.90;;;;;;;;;;4209053;28;20062;-87
2022/04/05 10:44:27;;;;;;;5.75;1.05;;;;;;;;;;4185955;28;20049;-88
2022/04/05 10:46:41;;;;;;;4.03;1.02;;;;;;;;;;4206610;28;20036;-87
2022/04/05 10:48:59;;;;;;;4.07;1.10;;;;;;;;;;4202628;28;20160;-87
2022/04/05 10:51:00;;;;;;;2.75;0.98;;;;;;;;;;4203256;28;20078;-87
2022/04/05 10:53:18;;;;;;;2.97;0.80;;;;;;;;;;4206967;28;20113;-88
2022/04/05 10:55:20;;;;;;;2.90;0.60;;;;;;;;;;4190055;28;20051;-87
2022/04/05 10:57:28;;;;;;;3.85;1.10;;;;;;;;;;4212253;28;20554;-87
2022/04/05 10:59:46;;;;;;;4.63;0.90;;;;;;;;;;4212254;28;20052;-88
2022/04/05 11:01:47;;;;;;;2.28;0.88;;;;;;;;;;4203698;28;20049;-88
2022/04/05 11:04:08;;;;;;;6.68;1.05;;;;;;;;;;4209729;28;20547;-88
2022/04/05 11:06:10;;;;;;;2.50;0.80;;;;;;;;;;4207371;28;20036;-85
2022/04/05 11:08:13;;;;;;;3.60;1.00;;;;;;;;;;4211461;28;20458;-87
2022/04/05 11:10:15;;;;;;;1.55;0.80;;;;;;;;;;4202620;28;20041;-88
2022/04/05 11:12:23;;;;;;;1.63;0.70;;;;;;;;;;4197542;28;20053;-87
2022/04/05 11:14:40;;;;;;;3.72;0.77;;;;;;;;;;4203119;28;20083;-86
2022/04/05 11:16:42;;;;;;;3.30;0.70;;;;;;;;;;4191543;28;20040;-86
2022/04/05 11:18:45;;;;;;;4.22;1.20;;;;;;;;;;4213450;28;20060;-87
2022/04/05 11:20:47;;;;;;;2.78;1.20;;;;;;;;;;4205833;28;20067;-88
2022/04/05 11:23:00;;;;;;;3.80;1.05;;;;;;;;;;4204775;28;20048;-88
2022/04/05 11:25:09;;;;;;;3.55;1.10;;;;;;;;;;4208374;28;20529;-88
2022/04/05 11:27:26;;;;;;;4.65;0.80;;;;;;;;;;4207743;28;20104;-87
2022/04/05 11:29:27;;;;;;;1.17;0.70;;;;;;;;;;4204934;28;20084;-87
2022/04/05 11:31:37;;;;;;;4.18;0.90;;;;;;;;;;4212303;28;20059;-89
2022/04/05 11:33:41;;;;;;;2.28;1.33;;;;;;;;;;4206829;28;20055;-87
2022/04/05 11:35:46;;;;;;;2.80;0.73;;;;;;;;;;4213034;28;20508;-87
2022/04/05 11:37:47;;;;;;;2.85;0.93;;;;;;;;;;4196176;28;20131;-87
2022/04/05 11:39:48;;;;;;;3.42;0.80;;;;;;;;;;4206840;28;20055;-87
2022/04/05 11:41:57;;;;;;;2.35;1.20;;;;;;;;;;4190433;28;20048;-87
2022/04/05 11:44:00;;;;;;;3.33;0.95;;;;;;;;;;4205688;28;20127;-87
2022/04/05 11:46:04;;;;;;;3.85;1.08;;;;;;;;;;4214340;28;20044;-87
2022/04/05 11:48:05;;;;;;;1.55;0.80;;;;;;;;;;4186721;28;20098;-87
2022/04/05 11:50:10;;;;;;;2.35;0.98;;;;;;;;;;4211205;28;20048;-87
2022/04/05 11:52:11;;;;;;;1.60;0.70;;;;;;;;;;4204475;28;20086;-86
2022/04/05 11:54:14;;;;;;;0.90;0.80;;;;;;;;;;4209331;28;20040;-86
2022/04/05 11:56:16;;;;;;;1.58;1.00;;;;;;;;;;4205663;28;20056;-86
2022/04/05 11:58:25;;;;;;;3.45;1.25;;;;;;;;;;4192750;28;20043;-87
2022/04/05 12:00:27;;;;;;;2.13;1.13;;;;;;;;;;4211706;28;20060;-86
2022/04/05 12:02:28;;;;;;;2.83;1.00;;;;;;;;;;4207218;28;20040;-88
2022/04/05 12:04:32;;;;;;;1.85;1.10;;;;;;;;;;4188551;28;20053;-87
2022/04/05 12:06:34;;;;;;;3.30;1.40;;;;;;;;;;4211584;28;20119;-87
2022/04/05 12:08:36;;;;;;;2.17;1.05;;;;;;;;;;4208889;28;20044;-87